createdAt,value
2019-02-19T00:03:05.121Z,84.2
2019-02-19T00:08:05.655Z,84.0
2019-02-19T00:12:28.305Z,83.9
2019-02-19T00:17:28.644Z,83.7
2019-02-19T00:22:28.048Z,83.6
2019-02-19T00:27:28.488Z,83.7
2019-02-19T00:32:28.505Z,83.6
2019-02-19T00:37:28.817Z,83.5
2019-02-19T00:42:27.726Z,83.7
2019-02-19T00:47:27.932Z,83.6
2019-02-19T00:52:27.502Z,83.7
2019-02-19T00:57:28.323Z,83.5
2019-02-19T01:02:27.910Z,83.3
2019-02-19T01:07:28.301Z,83.3
2019-02-19T01:12:28.092Z,83.3
2019-02-19T01:17:28.265Z,83.1
2019-02-19T01:22:27.912Z,83.1
2019-02-19T01:27:28.032Z,83.3
2019-02-19T01:32:27.813Z,83.1
2019-02-19T01:37:27.972Z,83.0
2019-02-19T01:42:27.290Z,82.8
2019-02-19T01:47:27.964Z,82.7
2019-02-19T01:52:28.662Z,82.9
2019-02-19T01:57:27.377Z,82.5
2019-02-19T02:02:28.583Z,82.4
2019-02-19T02:07:29.328Z,82.4
2019-02-19T02:12:27.535Z,82.3
2019-02-19T02:17:28.105Z,82.2
2019-02-19T02:22:28.253Z,82.0
2019-02-19T02:27:28.091Z,82.2
2019-02-19T02:32:28.253Z,82.1
2019-02-19T02:37:28.291Z,82.0
2019-02-19T02:42:28.009Z,82.2
2019-02-19T02:47:28.823Z,82.2
2019-02-19T02:52:28.448Z,82.1
2019-02-19T02:57:28.708Z,82.1
2019-02-19T03:02:28.143Z,82.1
2019-02-19T03:07:27.712Z,82.2
2019-02-19T03:12:28.557Z,82.3
2019-02-19T03:17:28.876Z,82.3
2019-02-19T03:22:28.194Z,82.3
2019-02-19T03:27:28.247Z,82.3
2019-02-19T03:32:28.644Z,82.3
2019-02-19T03:37:28.069Z,82.4
2019-02-19T03:42:28.239Z,82.5
2019-02-19T03:47:28.904Z,82.4
2019-02-19T03:52:27.974Z,82.4
2019-02-19T03:57:28.490Z,82.4
2019-02-19T04:02:28.180Z,82.4
2019-02-19T04:07:28.705Z,82.5
2019-02-19T04:12:28.638Z,82.5
2019-02-19T04:17:28.901Z,82.4
2019-02-19T04:22:29.924Z,82.4
2019-02-19T04:27:27.861Z,82.2
2019-02-19T04:32:28.854Z,82.1
2019-02-19T04:37:30.490Z,82.1
2019-02-19T04:42:28.019Z,82.4
2019-02-19T04:47:28.031Z,82.0
2019-02-19T04:52:27.876Z,81.9
2019-02-19T04:57:29.152Z,82.0
2019-02-19T05:02:29.303Z,82.0
2019-02-19T05:07:29.145Z,82.1
2019-02-19T05:12:28.392Z,82.1
2019-02-19T05:17:29.555Z,82.0
2019-02-19T05:22:28.778Z,82.0
2019-02-19T05:27:28.574Z,82.1
2019-02-19T05:32:28.532Z,82.2
2019-02-19T05:37:28.820Z,82.3
2019-02-19T05:42:28.798Z,82.2
2019-02-19T05:47:28.544Z,82.2
2019-02-19T05:52:28.686Z,82.2
2019-02-19T05:57:28.751Z,82.2
2019-02-19T06:02:28.807Z,82.1
2019-02-19T06:07:28.871Z,82.2
2019-02-19T06:12:29.509Z,82.2
2019-02-19T06:17:29.331Z,82.3
2019-02-19T06:22:28.983Z,82.2
2019-02-19T06:27:28.623Z,81.9
2019-02-19T06:32:29.227Z,82.1
2019-02-19T06:37:28.372Z,81.9
2019-02-19T06:42:28.440Z,81.9
2019-02-19T06:47:29.682Z,81.9
2019-02-19T06:52:28.683Z,81.9
2019-02-19T06:57:28.153Z,81.9
2019-02-19T07:02:28.060Z,81.7
2019-02-19T07:07:29.367Z,81.4
2019-02-19T07:12:29.113Z,81.3
2019-02-19T07:17:28.498Z,81.3
2019-02-19T07:22:28.551Z,81.3
2019-02-19T07:27:28.939Z,80.8
2019-02-19T07:32:28.801Z,80.8
2019-02-19T07:37:29.003Z,80.8
2019-02-19T07:42:28.670Z,80.9
2019-02-19T07:47:28.691Z,80.9
2019-02-19T07:52:29.329Z,80.8
2019-02-19T07:57:28.645Z,80.7
2019-02-19T08:02:30.233Z,80.6
2019-02-19T08:07:29.361Z,80.7
2019-02-19T08:12:29.585Z,81.1
2019-02-19T08:17:33.979Z,81.1
2019-02-19T08:22:29.005Z,80.8
2019-02-19T08:27:29.010Z,81.4
2019-02-19T08:32:28.650Z,81.5
2019-02-19T08:37:28.822Z,81.4
2019-02-19T08:42:28.263Z,81.0
2019-02-19T08:47:28.460Z,82.1
2019-02-19T08:52:28.428Z,82.1
2019-02-19T08:57:29.300Z,82.1
2019-02-19T09:02:29.407Z,82.3
2019-02-19T09:07:29.832Z,82.0
2019-02-19T09:12:30.100Z,82.0
2019-02-19T09:17:29.405Z,82.2
2019-02-19T09:22:28.879Z,82.8
2019-02-19T09:27:29.549Z,82.9
2019-02-19T09:32:29.482Z,83.3
2019-02-19T09:37:28.444Z,83.8
2019-02-19T09:42:29.721Z,84.3
2019-02-19T09:47:29.401Z,85.0
2019-02-19T09:52:29.012Z,85.2
2019-02-19T09:57:29.498Z,85.8
2019-02-19T10:02:29.079Z,86.3
2019-02-19T10:07:29.102Z,86.5
2019-02-19T10:12:29.270Z,86.7
2019-02-19T10:17:29.101Z,87.1
2019-02-19T10:22:29.135Z,87.0
2019-02-19T10:27:29.157Z,87.4
2019-02-19T10:32:29.261Z,86.6
2019-02-19T10:37:28.738Z,86.2
2019-02-19T10:42:29.014Z,86.1
2019-02-19T10:47:28.962Z,86.6
2019-02-19T10:52:28.880Z,86.2
2019-02-19T10:57:28.332Z,86.5
2019-02-19T11:02:28.258Z,86.4
2019-02-19T11:07:29.328Z,86.0
2019-02-19T11:12:29.031Z,86.0
2019-02-19T11:17:28.870Z,85.0
2019-02-19T11:22:28.897Z,83.5
2019-02-19T11:27:29.732Z,83.4
2019-02-19T11:32:29.031Z,83.7
2019-02-19T11:37:28.966Z,84.9
2019-02-19T11:42:28.699Z,84.4
2019-02-19T11:47:29.119Z,85.0
2019-02-19T11:52:28.933Z,85.8
2019-02-19T11:57:29.469Z,86.7
2019-02-19T12:02:33.453Z,86.6
2019-02-19T12:07:28.926Z,87.0
2019-02-19T12:12:29.011Z,87.4
2019-02-19T12:17:29.850Z,87.6
2019-02-19T12:22:29.114Z,87.5
2019-02-19T12:27:28.882Z,86.9
2019-02-19T12:32:29.375Z,87.1
2019-02-19T12:37:28.242Z,87.5
2019-02-19T12:42:28.720Z,87.4
2019-02-19T12:47:29.737Z,87.3
2019-02-19T12:52:28.906Z,87.3
2019-02-19T12:57:29.034Z,87.2
2019-02-19T13:02:29.102Z,87.1
2019-02-19T13:07:28.505Z,87.1
2019-02-19T13:12:28.485Z,87.0
2019-02-19T13:17:29.890Z,86.9
2019-02-19T13:22:28.774Z,86.9
2019-02-19T13:27:29.306Z,86.7
2019-02-19T13:32:28.362Z,86.6
2019-02-19T13:37:28.744Z,87.0
2019-02-19T13:42:29.404Z,86.7
2019-02-19T13:47:29.361Z,86.7
2019-02-19T13:52:29.429Z,86.9
2019-02-19T13:57:28.737Z,87.1
2019-02-19T14:02:29.306Z,87.0
2019-02-19T14:07:28.214Z,87.4
2019-02-19T14:12:28.896Z,87.5
2019-02-19T14:17:29.245Z,87.4
2019-02-19T14:22:28.184Z,87.6
2019-02-19T14:27:28.899Z,87.4
2019-02-19T14:32:28.762Z,87.5
2019-02-19T14:37:28.698Z,87.3
2019-02-19T14:42:29.024Z,87.3
2019-02-19T14:47:29.122Z,87.4
2019-02-19T14:52:28.575Z,87.2
2019-02-19T14:57:28.050Z,87.1
2019-02-19T15:02:28.791Z,86.8
2019-02-19T15:07:28.992Z,86.8
2019-02-19T15:12:28.960Z,87.1
2019-02-19T15:17:29.278Z,87.1
2019-02-19T15:22:28.971Z,87.1
2019-02-19T15:27:28.847Z,87.3
2019-02-19T15:32:27.853Z,87.1
2019-02-19T15:37:28.438Z,86.9
2019-02-19T15:42:28.845Z,87.6
2019-02-19T15:47:29.002Z,87.5
2019-02-19T15:52:28.919Z,88.1
2019-02-19T15:57:28.619Z,88.1
2019-02-19T16:02:28.757Z,88.2
2019-02-19T16:07:28.651Z,88.2
2019-02-19T16:12:28.403Z,88.4
2019-02-19T16:17:30.162Z,88.4
2019-02-19T16:22:28.640Z,88.5
2019-02-19T16:27:28.566Z,88.6
2019-02-19T16:32:28.741Z,88.8
2019-02-19T16:37:29.129Z,88.9
2019-02-19T16:42:29.013Z,88.7
2019-02-19T16:47:28.804Z,89.1
2019-02-19T16:52:28.721Z,89.2
2019-02-19T16:57:28.570Z,89.0
2019-02-19T17:02:28.758Z,88.8
2019-02-19T17:07:29.271Z,89.0
2019-02-19T17:12:28.786Z,88.9
2019-02-19T17:17:28.453Z,88.9
2019-02-19T17:22:28.794Z,88.9
2019-02-19T17:27:28.769Z,89.0
2019-02-19T17:32:28.314Z,89.0
2019-02-19T17:37:28.525Z,89.0
2019-02-19T17:42:28.841Z,89.0
2019-02-19T17:47:28.315Z,88.9
2019-02-19T17:52:27.197Z,88.8
2019-02-19T17:57:28.643Z,88.9
2019-02-19T18:02:28.530Z,89.1
2019-02-19T18:07:28.356Z,89.0
2019-02-19T18:12:28.862Z,89.0
2019-02-19T18:17:28.828Z,89.2
2019-02-19T18:22:27.920Z,89.4
2019-02-19T18:27:28.709Z,89.1
2019-02-19T18:32:28.972Z,89.1
2019-02-19T18:37:27.796Z,89.2
2019-02-19T18:42:28.558Z,89.1
2019-02-19T18:47:28.258Z,89.1
2019-02-19T18:52:28.194Z,89.2
2019-02-19T18:57:28.758Z,89.2
2019-02-19T19:02:27.362Z,89.3
2019-02-19T19:07:29.098Z,89.4
2019-02-19T19:12:27.906Z,89.5
2019-02-19T19:17:28.354Z,89.5
2019-02-19T19:22:29.260Z,89.7
2019-02-19T19:27:28.839Z,89.6
2019-02-19T19:32:29.754Z,89.5
2019-02-19T19:37:28.570Z,89.5
2019-02-19T19:42:29.081Z,89.4
2019-02-19T19:47:28.234Z,89.3
2019-02-19T19:52:28.498Z,89.4
2019-02-19T19:57:28.561Z,89.5
2019-02-19T20:02:28.458Z,89.5
2019-02-19T20:07:29.057Z,89.6
2019-02-19T20:12:28.470Z,89.6
2019-02-19T20:17:28.685Z,89.7
2019-02-19T20:22:28.676Z,89.6
2019-02-19T20:27:29.532Z,89.6
2019-02-19T20:32:28.408Z,89.5
2019-02-19T20:37:28.358Z,89.4
2019-02-19T20:42:28.080Z,89.2
2019-02-19T20:47:28.216Z,89.2
2019-02-19T20:52:28.041Z,89.3
2019-02-19T20:57:27.945Z,89.2
2019-02-19T21:02:28.447Z,89.2
2019-02-19T21:07:28.488Z,89.1
2019-02-19T21:12:29.301Z,88.8
2019-02-19T21:17:28.320Z,88.3
2019-02-19T21:22:28.255Z,88.4
2019-02-19T21:27:28.458Z,88.4
2019-02-19T21:32:28.479Z,88.4
2019-02-19T21:37:28.633Z,88.3
2019-02-19T21:42:29.525Z,87.8
2019-02-19T21:47:28.530Z,87.8
2019-02-19T21:52:28.977Z,87.8
2019-02-19T21:57:28.139Z,87.6
2019-02-19T22:02:28.509Z,87.2
2019-02-19T22:07:28.069Z,87.1
2019-02-19T22:12:28.113Z,87.3
2019-02-19T22:17:28.177Z,87.4
2019-02-19T22:22:28.428Z,87.2
2019-02-19T22:27:28.324Z,87.1
2019-02-19T22:32:29.629Z,87.1
2019-02-19T22:37:29.936Z,86.9
2019-02-19T22:42:28.211Z,86.9
2019-02-19T22:47:28.432Z,86.8
2019-02-19T22:52:27.800Z,86.7
2019-02-19T22:57:29.039Z,86.7
2019-02-19T23:02:28.892Z,86.6
2019-02-19T23:07:28.316Z,86.6
2019-02-19T23:12:29.741Z,86.4
2019-02-19T23:22:45.355Z,86.1
2019-02-19T23:27:44.630Z,86.1
2019-02-19T23:32:44.852Z,85.9
2019-02-19T23:37:43.853Z,85.9
2019-02-19T23:42:44.896Z,85.7
2019-02-19T23:47:44.784Z,85.7
2019-02-19T23:52:44.372Z,85.6
2019-02-19T23:57:46.298Z,85.7
